createdAt,value
2022-11-26T00:02:16.277Z,0.80
2022-11-26T00:04:43.571Z,0.90
2022-11-26T00:07:12.308Z,0.90
2022-11-26T00:09:40.014Z,0.90
2022-11-26T00:12:26.396Z,0.90
2022-11-26T00:14:54.004Z,0.90
2022-11-26T00:17:21.548Z,0.90
2022-11-26T00:19:49.142Z,0.90
2022-11-26T00:22:22.270Z,0.90
2022-11-26T00:24:50.178Z,1.00
2022-11-26T00:27:17.355Z,1.00
2022-11-26T00:29:44.548Z,1.00
2022-11-26T00:32:17.866Z,1.10
2022-11-26T00:34:45.152Z,1.10
2022-11-26T00:37:22.432Z,1.10
2022-11-26T00:39:50.315Z,1.10
2022-11-26T00:42:19.155Z,1.20
2022-11-26T00:44:46.601Z,1.10
2022-11-26T00:47:13.628Z,1.10
2022-11-26T00:49:40.716Z,1.10
2022-11-26T00:52:31.953Z,1.10
2022-11-26T00:54:59.567Z,1.10
2022-11-26T00:57:26.650Z,1.10
2022-11-26T00:59:53.842Z,1.00
2022-11-26T01:02:20.910Z,1.00
2022-11-26T01:04:48.138Z,1.10
2022-11-26T01:07:15.400Z,1.00
2022-11-26T01:09:46.349Z,1.00
2022-11-26T01:12:14.887Z,1.00
2022-11-26T01:14:42.024Z,1.00
2022-11-26T01:17:11.965Z,1.00
2022-11-26T01:19:39.187Z,1.10
2022-11-26T01:22:06.383Z,1.00
2022-11-26T01:24:33.682Z,1.00
2022-11-26T01:27:00.750Z,0.80
2022-11-26T01:29:27.958Z,0.80
2022-11-26T01:31:55.124Z,0.70
2022-11-26T01:34:22.312Z,0.70
2022-11-26T01:36:49.480Z,0.70
2022-11-26T01:39:19.844Z,0.70
2022-11-26T01:42:16.119Z,0.60
2022-11-26T01:44:43.483Z,0.60
2022-11-26T01:47:29.802Z,0.60
2022-11-26T01:50:32.953Z,0.60
2022-11-26T01:53:04.613Z,0.60
2022-11-26T01:55:54.344Z,0.50
2022-11-26T01:58:26.558Z,0.50
2022-11-26T02:00:53.722Z,0.40
2022-11-26T02:03:23.819Z,0.40
2022-11-26T02:05:59.379Z,0.40
2022-11-26T02:08:30.108Z,0.30
2022-11-26T02:10:57.359Z,0.40
2022-11-26T02:13:25.730Z,0.40
2022-11-26T02:16:06.162Z,0.40
2022-11-26T02:18:39.859Z,0.40
2022-11-26T02:21:12.660Z,0.40
2022-11-26T02:23:50.153Z,0.40
2022-11-26T02:26:33.043Z,0.30
2022-11-26T02:29:08.389Z,0.30
2022-11-26T02:31:51.857Z,0.30
2022-11-26T02:34:37.437Z,0.30
2022-11-26T02:37:15.048Z,0.30
2022-11-26T02:39:42.128Z,0.20
2022-11-26T02:42:31.050Z,0.20
2022-11-26T02:45:07.825Z,0.30
2022-11-26T02:47:36.072Z,0.30
2022-11-26T02:50:08.332Z,0.30
2022-11-26T02:52:36.450Z,0.20
2022-11-26T02:55:07.375Z,0.20
2022-11-26T02:57:42.920Z,0.20
2022-11-26T03:00:10.603Z,0.20
2022-11-26T03:02:46.292Z,0.10
2022-11-26T03:05:16.655Z,0.10
2022-11-26T03:07:46.658Z,0.10
2022-11-26T03:10:14.034Z,0.10
2022-11-26T03:12:41.117Z,0.00
2022-11-26T03:15:09.143Z,0.10
2022-11-26T03:17:36.141Z,0.00
2022-11-26T03:20:04.176Z,0.00
2022-11-26T03:22:31.416Z,0.00
2022-11-26T03:24:58.492Z,0.00
2022-11-26T03:27:26.547Z,-0.10
2022-11-26T03:29:53.562Z,0.00
2022-11-26T03:32:20.673Z,0.00
2022-11-26T03:34:47.780Z,0.00
2022-11-26T03:37:14.999Z,0.00
2022-11-26T03:39:42.210Z,0.00
2022-11-26T03:42:09.426Z,-0.10
2022-11-26T03:44:37.139Z,-0.10
2022-11-26T03:47:04.323Z,-0.10
2022-11-26T03:49:31.482Z,-0.10
2022-11-26T03:51:58.642Z,0.00
2022-11-26T03:54:25.816Z,0.00
2022-11-26T03:56:52.978Z,0.00
2022-11-26T03:59:20.192Z,0.00
2022-11-26T04:01:47.348Z,0.00
2022-11-26T04:04:14.643Z,0.00
2022-11-26T04:06:41.794Z,0.00
2022-11-26T04:09:08.895Z,0.00
2022-11-26T04:11:36.346Z,0.00
2022-11-26T04:14:03.499Z,0.00
2022-11-26T04:16:30.779Z,0.00
2022-11-26T04:18:57.865Z,0.00
2022-11-26T04:21:24.972Z,0.00
2022-11-26T04:23:52.139Z,0.00
2022-11-26T04:26:19.488Z,0.00
2022-11-26T04:28:46.786Z,0.00
2022-11-26T04:31:14.167Z,0.00
2022-11-26T04:33:41.779Z,0.10
2022-11-26T04:36:09.447Z,0.00
2022-11-26T04:38:38.627Z,0.00
2022-11-26T04:41:05.972Z,0.00
2022-11-26T04:43:33.092Z,-0.10
2022-11-26T04:46:00.574Z,-0.10
2022-11-26T04:48:28.112Z,-0.10
2022-11-26T04:50:55.159Z,-0.10
2022-11-26T04:53:22.599Z,-0.10
2022-11-26T04:55:50.776Z,-0.10
2022-11-26T04:58:19.387Z,0.00
2022-11-26T05:00:50.582Z,0.00
2022-11-26T05:03:19.187Z,0.00
2022-11-26T05:05:47.250Z,0.00
2022-11-26T05:08:14.586Z,-0.10
2022-11-26T05:10:41.880Z,-0.10
2022-11-26T05:13:09.043Z,0.00
2022-11-26T05:15:36.110Z,0.00
2022-11-26T05:18:03.243Z,0.00
2022-11-26T05:20:30.430Z,0.00
2022-11-26T05:22:57.554Z,0.00
2022-11-26T05:25:24.592Z,0.10
2022-11-26T05:27:51.638Z,0.10
2022-11-26T05:30:18.756Z,0.10
2022-11-26T05:32:45.962Z,0.10
2022-11-26T05:35:12.983Z,0.10
2022-11-26T05:37:40.026Z,0.10
2022-11-26T05:40:08.810Z,0.10
2022-11-26T05:42:36.273Z,0.10
2022-11-26T05:45:04.233Z,0.10
2022-11-26T05:47:31.439Z,0.10
2022-11-26T05:49:58.677Z,0.10
2022-11-26T05:52:26.651Z,0.20
2022-11-26T05:54:53.667Z,0.20
2022-11-26T05:57:20.838Z,0.20
2022-11-26T05:59:49.440Z,0.30
2022-11-26T06:02:16.713Z,0.30
2022-11-26T06:04:44.045Z,0.30
2022-11-26T06:07:11.149Z,0.30
2022-11-26T06:09:38.553Z,0.30
2022-11-26T06:12:06.170Z,0.30
2022-11-26T06:14:33.310Z,0.30
2022-11-26T06:17:00.555Z,0.30
2022-11-26T06:19:27.635Z,0.30
2022-11-26T06:21:54.833Z,0.30
2022-11-26T06:24:21.892Z,0.30
2022-11-26T06:26:49.130Z,0.30
2022-11-26T06:29:16.256Z,0.30
2022-11-26T06:31:43.449Z,0.30
2022-11-26T06:34:10.554Z,0.40
2022-11-26T06:36:37.673Z,0.50
2022-11-26T06:39:04.720Z,0.60
2022-11-26T06:41:31.845Z,0.60
2022-11-26T06:44:00.152Z,0.80
2022-11-26T06:46:27.244Z,0.90
2022-11-26T06:48:55.622Z,1.00
2022-11-26T06:51:27.713Z,1.20
2022-11-26T06:53:55.061Z,1.40
2022-11-26T06:56:22.088Z,1.80
2022-11-26T06:58:50.352Z,3.10
2022-11-26T07:01:20.644Z,4.50
2022-11-26T07:03:47.935Z,5.60
2022-11-26T07:06:25.081Z,5.80
2022-11-26T07:08:54.346Z,5.70
2022-11-26T07:11:22.981Z,5.30
2022-11-26T07:13:50.493Z,4.90
2022-11-26T07:16:17.770Z,4.50
2022-11-26T07:18:49.566Z,4.30
2022-11-26T07:21:16.879Z,4.20
2022-11-26T07:23:44.015Z,4.20
2022-11-26T07:26:12.520Z,4.20
2022-11-26T07:28:40.370Z,4.50
2022-11-26T07:31:15.896Z,4.80
2022-11-26T07:33:44.638Z,5.20
2022-11-26T07:36:30.678Z,5.90
2022-11-26T07:39:00.054Z,6.30
2022-11-26T07:41:28.287Z,6.30
2022-11-26T07:43:55.720Z,5.90
2022-11-26T07:46:25.343Z,5.50
2022-11-26T07:48:52.715Z,5.30
2022-11-26T07:51:24.329Z,5.30
2022-11-26T07:53:52.591Z,5.30
2022-11-26T07:56:20.262Z,5.20
2022-11-26T07:58:47.552Z,5.00
2022-11-26T08:01:18.547Z,4.70
2022-11-26T08:03:47.604Z,4.60
2022-11-26T08:06:17.480Z,4.50
2022-11-26T08:08:44.975Z,4.40
2022-11-26T08:11:16.422Z,4.30
2022-11-26T08:13:44.595Z,4.40
2022-11-26T08:16:12.556Z,4.50
2022-11-26T08:18:40.459Z,4.50
2022-11-26T08:21:07.870Z,4.40
2022-11-26T08:23:35.567Z,4.40
2022-11-26T08:26:32.580Z,4.30
2022-11-26T08:28:55.999Z,4.40
2022-11-26T08:31:25.056Z,4.40
2022-11-26T08:33:52.283Z,4.40
2022-11-26T08:36:19.437Z,4.60
2022-11-26T08:38:46.481Z,4.70
2022-11-26T08:41:14.768Z,4.80
2022-11-26T08:46:29.375Z,5.20
2022-11-26T08:48:57.228Z,5.60
2022-11-26T08:51:25.302Z,6.20
2022-11-26T08:53:52.734Z,6.70
2022-11-26T08:56:20.019Z,7.10
2022-11-26T08:58:49.019Z,7.60
2022-11-26T09:01:19.756Z,8.60
2022-11-26T09:03:49.505Z,9.50
2022-11-26T09:06:18.009Z,10.00
2022-11-26T09:09:05.120Z,10.50
2022-11-26T09:11:35.007Z,10.50
2022-11-26T09:14:02.844Z,10.30
2022-11-26T09:16:30.093Z,10.50
2022-11-26T09:19:00.439Z,10.90
2022-11-26T09:21:27.904Z,10.60
2022-11-26T09:23:56.069Z,10.10
2022-11-26T09:26:23.323Z,10.00
2022-11-26T09:28:50.660Z,9.80
2022-11-26T09:31:18.686Z,9.20
2022-11-26T09:33:46.011Z,8.90
2022-11-26T09:36:16.284Z,8.80
2022-11-26T09:38:43.818Z,8.60
2022-11-26T09:41:50.837Z,8.40
2022-11-26T09:44:54.490Z,8.20
2022-11-26T09:47:25.459Z,7.90
2022-11-26T09:50:01.604Z,7.80
2022-11-26T09:52:36.821Z,7.70
2022-11-26T09:55:08.298Z,7.60
2022-11-26T09:57:41.644Z,7.30
2022-11-26T10:00:25.796Z,7.40
2022-11-26T10:02:55.974Z,7.60
2022-11-26T10:05:34.474Z,7.60
2022-11-26T10:08:16.374Z,7.80
2022-11-26T10:11:01.196Z,7.90
2022-11-26T10:13:42.414Z,8.00
2022-11-26T10:16:25.020Z,8.30
2022-11-26T10:18:59.677Z,8.40
2022-11-26T10:21:57.192Z,8.50
2022-11-26T10:24:38.757Z,8.50
2022-11-26T10:27:14.476Z,8.60
2022-11-26T10:29:44.310Z,8.60
2022-11-26T10:32:35.113Z,8.70
2022-11-26T10:35:02.612Z,8.70
2022-11-26T10:37:30.387Z,8.60
2022-11-26T10:40:10.284Z,8.50
2022-11-26T10:42:55.404Z,8.50
2022-11-26T10:45:25.897Z,8.50
2022-11-26T10:47:52.976Z,8.40
2022-11-26T10:53:20.892Z,8.50
2022-11-26T10:55:48.381Z,8.60
2022-11-26T10:58:19.156Z,8.60
2022-11-26T11:00:54.483Z,8.60
2022-11-26T11:03:59.327Z,8.60
2022-11-26T11:06:24.879Z,8.70
2022-11-26T11:08:53.631Z,8.70
2022-11-26T11:11:25.554Z,8.70
2022-11-26T11:13:53.479Z,8.70
2022-11-26T11:16:32.194Z,8.60
2022-11-26T11:19:02.672Z,8.60
2022-11-26T11:21:37.451Z,8.70
2022-11-26T11:24:16.641Z,8.80
2022-11-26T11:26:46.734Z,8.90
2022-11-26T11:29:29.694Z,8.90
2022-11-26T11:31:57.867Z,9.00
2022-11-26T11:34:41.373Z,9.10
2022-11-26T11:37:18.727Z,9.20
2022-11-26T11:39:45.985Z,9.30
2022-11-26T11:42:28.328Z,9.40
2022-11-26T11:44:57.083Z,9.40
2022-11-26T11:47:36.990Z,9.30
2022-11-26T11:50:13.014Z,9.40
2022-11-26T11:52:57.367Z,9.40
2022-11-26T11:55:29.623Z,9.70
2022-11-26T11:58:03.465Z,9.80
2022-11-26T12:00:46.867Z,9.70
2022-11-26T12:03:17.347Z,9.60
2022-11-26T12:05:57.333Z,9.60
2022-11-26T12:08:51.602Z,9.50
2022-11-26T12:11:46.593Z,9.50
2022-11-26T12:14:19.617Z,9.30
2022-11-26T12:16:52.601Z,9.20
2022-11-26T12:19:25.932Z,9.10
2022-11-26T12:22:01.664Z,8.70
2022-11-26T12:24:51.726Z,8.70
2022-11-26T12:27:19.832Z,8.90
2022-11-26T12:29:53.852Z,8.80
2022-11-26T12:32:31.747Z,8.90
2022-11-26T12:35:05.196Z,8.80
2022-11-26T12:37:39.186Z,8.80
2022-11-26T12:40:18.368Z,8.80
2022-11-26T12:42:52.560Z,9.00
2022-11-26T12:45:27.461Z,9.00
2022-11-26T12:48:00.961Z,9.10
2022-11-26T12:50:51.079Z,9.10
2022-11-26T12:53:31.663Z,9.10
2022-11-26T12:56:21.649Z,9.10
2022-11-26T12:59:01.061Z,9.10
2022-11-26T13:01:28.756Z,9.10
2022-11-26T13:04:14.779Z,9.00
2022-11-26T13:07:03.938Z,9.00
2022-11-26T13:09:59.130Z,8.90
2022-11-26T13:12:53.712Z,8.80
2022-11-26T13:15:27.151Z,8.70
2022-11-26T13:17:55.785Z,8.70
2022-11-26T13:20:49.032Z,8.70
2022-11-26T13:23:50.719Z,8.60
2022-11-26T13:26:18.780Z,8.60
2022-11-26T13:28:56.438Z,8.50
2022-11-26T13:31:44.480Z,8.50
2022-11-26T13:34:34.574Z,8.50
2022-11-26T13:37:05.131Z,8.50
2022-11-26T13:40:08.121Z,8.50
2022-11-26T13:42:36.369Z,8.40
2022-11-26T13:45:08.675Z,8.30
2022-11-26T13:47:47.114Z,8.30
2022-11-26T13:50:24.579Z,8.30
2022-11-26T13:52:59.296Z,8.30
2022-11-26T13:55:34.288Z,8.20
2022-11-26T13:58:05.302Z,8.20
2022-11-26T14:00:34.259Z,8.10
2022-11-26T14:03:02.877Z,8.10
2022-11-26T14:05:49.859Z,8.00
2022-11-26T14:08:35.279Z,8.00
2022-11-26T14:11:02.826Z,7.90
2022-11-26T14:13:29.971Z,7.80
2022-11-26T14:16:06.284Z,7.80
2022-11-26T14:18:49.031Z,7.70
2022-11-26T14:21:17.231Z,7.60
2022-11-26T14:23:46.699Z,7.50
2022-11-26T14:26:26.551Z,7.50
2022-11-26T14:29:10.885Z,7.40
2022-11-26T14:31:55.136Z,7.30
2022-11-26T14:34:22.264Z,7.10
2022-11-26T14:36:56.503Z,7.10
2022-11-26T14:39:24.347Z,7.00
2022-11-26T14:41:53.328Z,6.90
2022-11-26T14:44:21.632Z,6.80
2022-11-26T14:46:52.139Z,6.70
2022-11-26T14:49:26.792Z,6.60
2022-11-26T14:51:54.080Z,6.60
2022-11-26T14:54:29.698Z,6.50
2022-11-26T14:56:59.728Z,6.40
2022-11-26T14:59:27.126Z,6.40
2022-11-26T15:01:54.414Z,6.30
2022-11-26T15:04:30.245Z,6.20
2022-11-26T15:06:58.695Z,6.10
2022-11-26T15:09:28.652Z,6.00
2022-11-26T15:11:56.889Z,5.90
2022-11-26T15:14:30.121Z,5.80
2022-11-26T15:17:02.063Z,5.60
2022-11-26T15:19:35.024Z,5.50
2022-11-26T15:22:06.823Z,5.40
2022-11-26T15:24:34.622Z,5.30
2022-11-26T15:27:01.902Z,5.20
2022-11-26T15:29:33.274Z,5.10
2022-11-26T15:32:01.159Z,5.10
2022-11-26T15:34:29.528Z,4.90
2022-11-26T15:36:56.597Z,4.90
2022-11-26T15:39:26.890Z,4.80
2022-11-26T15:41:59.270Z,4.70
2022-11-26T15:44:28.607Z,4.70
2022-11-26T15:46:57.486Z,4.70
2022-11-26T15:49:40.075Z,4.70
2022-11-26T15:52:11.641Z,4.70
2022-11-26T15:55:12.061Z,4.70
2022-11-26T15:57:33.137Z,4.70
2022-11-26T16:00:06.724Z,4.70
2022-11-26T16:02:34.388Z,4.70
2022-11-26T16:05:03.243Z,4.60
2022-11-26T16:07:32.854Z,4.60
2022-11-26T16:10:23.193Z,4.60
2022-11-26T16:13:11.456Z,4.60
2022-11-26T16:15:49.208Z,4.60
2022-11-26T16:18:22.678Z,4.60
2022-11-26T16:20:50.093Z,4.60
2022-11-26T16:23:26.165Z,4.70
2022-11-26T16:26:16.286Z,4.70
2022-11-26T16:28:45.255Z,4.70
2022-11-26T16:31:14.938Z,4.70
2022-11-26T16:33:42.969Z,4.70
2022-11-26T16:36:32.726Z,4.70
2022-11-26T16:38:59.778Z,4.60
2022-11-26T16:41:27.185Z,4.60
2022-11-26T16:43:54.188Z,4.60
2022-11-26T16:46:23.975Z,4.70
2022-11-26T16:48:52.388Z,4.70
2022-11-26T16:51:20.481Z,4.70
2022-11-26T16:53:47.717Z,4.70
2022-11-26T16:58:51.074Z,4.80
2022-11-26T17:01:18.722Z,4.70
2022-11-26T17:03:45.953Z,4.80
2022-11-26T17:06:17.811Z,4.80
2022-11-26T17:08:49.469Z,4.80
2022-11-26T17:11:18.124Z,4.70
2022-11-26T17:13:45.664Z,4.70
2022-11-26T17:16:16.415Z,4.60
2022-11-26T17:18:43.946Z,4.60
2022-11-26T17:21:11.110Z,4.50
2022-11-26T17:23:38.468Z,4.40
2022-11-26T17:26:25.693Z,4.30
2022-11-26T17:28:52.809Z,4.20
2022-11-26T17:31:20.191Z,4.10
2022-11-26T17:33:47.399Z,3.90
2022-11-26T17:36:18.537Z,3.90
2022-11-26T17:38:46.403Z,3.90
2022-11-26T17:41:14.596Z,3.80
2022-11-26T17:43:42.373Z,3.70
2022-11-26T17:46:15.447Z,3.60
2022-11-26T17:48:42.824Z,3.50
2022-11-26T17:51:12.500Z,3.50
2022-11-26T17:53:39.766Z,3.40
2022-11-26T17:56:07.367Z,3.30
2022-11-26T17:58:34.418Z,3.20
2022-11-26T18:01:01.632Z,3.20
2022-11-26T18:03:28.945Z,3.20
2022-11-26T18:05:56.051Z,3.20
2022-11-26T18:08:23.506Z,3.10
2022-11-26T18:10:50.639Z,3.10
2022-11-26T18:13:17.743Z,3.20
2022-11-26T18:15:44.795Z,3.10
2022-11-26T18:18:11.895Z,3.00
2022-11-26T18:20:39.118Z,3.00
2022-11-26T18:23:06.182Z,2.90
2022-11-26T18:25:34.920Z,2.90
2022-11-26T18:28:01.973Z,2.90
2022-11-26T18:30:30.680Z,2.90
2022-11-26T18:32:58.168Z,3.00
2022-11-26T18:35:25.270Z,3.00
2022-11-26T18:37:52.416Z,3.10
2022-11-26T18:40:19.718Z,3.20
2022-11-26T18:42:52.453Z,3.20
2022-11-26T18:45:19.672Z,3.30
2022-11-26T18:47:46.741Z,3.30
2022-11-26T18:50:14.182Z,3.30
2022-11-26T18:52:41.356Z,3.40
2022-11-26T18:55:09.705Z,3.40
2022-11-26T18:57:36.871Z,3.50
2022-11-26T19:00:05.187Z,3.50
2022-11-26T19:02:34.409Z,3.50
2022-11-26T19:05:01.554Z,3.50
2022-11-26T19:07:28.675Z,3.40
2022-11-26T19:09:55.767Z,3.40
2022-11-26T19:12:22.856Z,3.40
2022-11-26T19:14:50.174Z,3.40
2022-11-26T19:17:17.241Z,3.40
2022-11-26T19:19:44.296Z,3.30
2022-11-26T19:22:11.349Z,3.40
2022-11-26T19:24:38.524Z,3.40
2022-11-26T19:27:05.613Z,3.40
2022-11-26T19:29:32.675Z,3.40
2022-11-26T19:31:59.711Z,3.40
2022-11-26T19:34:26.819Z,3.50
2022-11-26T19:36:57.733Z,3.50
2022-11-26T19:39:25.048Z,3.50
2022-11-26T19:41:52.112Z,3.50
2022-11-26T19:44:19.271Z,3.50
2022-11-26T19:46:48.329Z,3.50
2022-11-26T19:49:15.519Z,3.50
2022-11-26T19:51:43.222Z,3.60
2022-11-26T19:54:10.432Z,3.70
2022-11-26T19:56:38.196Z,3.70
2022-11-26T19:59:05.518Z,3.70
2022-11-26T20:01:34.276Z,3.70
2022-11-26T20:04:05.528Z,3.70
2022-11-26T20:06:34.190Z,3.70
2022-11-26T20:09:05.137Z,3.70
2022-11-26T20:11:32.971Z,3.70
2022-11-26T20:14:00.087Z,3.70
2022-11-26T20:16:31.019Z,3.70
2022-11-26T20:18:59.303Z,3.70
2022-11-26T20:21:28.180Z,3.70
2022-11-26T20:23:57.981Z,3.70
2022-11-26T20:26:29.578Z,3.70
2022-11-26T20:29:00.756Z,3.70
2022-11-26T20:31:28.163Z,3.70
2022-11-26T20:33:55.511Z,3.70
2022-11-26T20:36:24.308Z,3.70
2022-11-26T20:38:54.082Z,3.70
2022-11-26T20:41:22.411Z,3.70
2022-11-26T20:43:53.753Z,3.70
2022-11-26T20:46:26.019Z,3.70
2022-11-26T20:48:53.654Z,3.70
2022-11-26T20:51:22.123Z,3.70
2022-11-26T20:53:50.976Z,3.70
2022-11-26T20:56:20.447Z,3.60
2022-11-26T20:58:48.547Z,3.70
2022-11-26T21:01:17.336Z,3.70
2022-11-26T21:03:45.573Z,3.60
2022-11-26T21:06:14.463Z,3.60
2022-11-26T21:08:42.003Z,3.60
2022-11-26T21:11:10.207Z,3.60
2022-11-26T21:13:38.767Z,3.60
2022-11-26T21:16:07.798Z,3.60
2022-11-26T21:18:34.855Z,3.60
2022-11-26T21:21:08.431Z,3.60
2022-11-26T21:23:39.074Z,3.60
2022-11-26T21:26:08.367Z,3.60
2022-11-26T21:28:36.025Z,3.70
2022-11-26T21:31:06.183Z,3.60
2022-11-26T21:33:33.542Z,3.60
2022-11-26T21:36:09.755Z,3.60
2022-11-26T21:38:37.509Z,3.60
2022-11-26T21:41:11.695Z,3.70
2022-11-26T21:43:39.959Z,3.60
2022-11-26T21:46:09.989Z,3.60
2022-11-26T21:48:37.198Z,3.60
2022-11-26T21:51:09.214Z,3.60
2022-11-26T21:53:36.432Z,3.70
2022-11-26T21:56:08.117Z,3.70
2022-11-26T21:58:37.009Z,3.60
2022-11-26T22:01:15.298Z,3.60
2022-11-26T22:03:44.633Z,3.60
2022-11-26T22:06:12.271Z,3.60
2022-11-26T22:08:39.812Z,3.60
2022-11-26T22:11:17.792Z,3.60
2022-11-26T22:13:45.454Z,3.70
2022-11-26T22:16:16.035Z,3.60
2022-11-26T22:18:44.617Z,3.60
2022-11-26T22:21:29.382Z,3.50
2022-11-26T22:23:57.017Z,3.50
2022-11-26T22:26:25.109Z,3.40
2022-11-26T22:28:52.494Z,3.40
2022-11-26T22:31:24.691Z,3.30
2022-11-26T22:33:58.244Z,3.20
2022-11-26T22:36:26.054Z,3.00
2022-11-26T22:38:53.453Z,2.90
2022-11-26T22:41:20.691Z,2.90
2022-11-26T22:43:47.944Z,2.70
2022-11-26T22:46:17.651Z,2.70
2022-11-26T22:48:49.846Z,2.60
2022-11-26T22:51:17.087Z,2.60
2022-11-26T22:53:44.603Z,2.50
2022-11-26T22:56:11.687Z,2.40
2022-11-26T22:58:38.719Z,2.30
2022-11-26T23:01:09.178Z,2.30
2022-11-26T23:03:38.179Z,2.30
2022-11-26T23:06:09.242Z,2.20
2022-11-26T23:08:38.220Z,2.20
2022-11-26T23:11:20.450Z,2.10
2022-11-26T23:13:50.030Z,2.10
2022-11-26T23:16:18.548Z,2.00
2022-11-26T23:18:46.439Z,2.00
2022-11-26T23:21:19.828Z,2.00
2022-11-26T23:23:47.651Z,1.90
2022-11-26T23:26:23.181Z,1.90
2022-11-26T23:28:53.656Z,1.90
2022-11-26T23:31:24.113Z,1.90
2022-11-26T23:33:51.569Z,1.90
2022-11-26T23:36:20.054Z,1.90
2022-11-26T23:38:47.497Z,2.00
2022-11-26T23:41:14.947Z,2.00
2022-11-26T23:43:42.241Z,2.10
2022-11-26T23:46:18.852Z,2.10
2022-11-26T23:48:46.742Z,2.20
2022-11-26T23:51:18.851Z,2.20
2022-11-26T23:53:47.009Z,2.30
2022-11-26T23:56:24.039Z,2.30
2022-11-26T23:58:52.791Z,2.40
